createdAt,value
2023-02-09T00:02:00.999Z,22.60
2023-02-09T00:04:29.333Z,22.10
2023-02-09T00:06:56.999Z,21.50
2023-02-09T00:09:24.912Z,21.60
2023-02-09T00:12:10.670Z,21.00
2023-02-09T00:14:37.653Z,21.80
2023-02-09T00:17:09.662Z,21.60
2023-02-09T00:19:36.575Z,20.60
2023-02-09T00:22:03.783Z,21.30
2023-02-09T00:24:31.802Z,23.00
2023-02-09T00:26:58.698Z,26.40
2023-02-09T00:29:27.176Z,22.90
2023-02-09T00:31:54.409Z,21.90
2023-02-09T00:34:21.500Z,21.30
2023-02-09T00:36:51.641Z,19.40
2023-02-09T00:39:18.524Z,19.80
2023-02-09T00:42:04.068Z,20.50
2023-02-09T00:44:32.185Z,19.40
2023-02-09T00:47:01.473Z,20.30
2023-02-09T00:49:29.717Z,21.20
2023-02-09T00:54:26.039Z,19.00
2023-02-09T00:56:53.433Z,22.00
2023-02-09T00:59:20.433Z,19.50
2023-02-09T01:01:47.888Z,21.20
2023-02-09T01:04:15.061Z,23.60
2023-02-09T01:06:42.147Z,24.30
2023-02-09T01:09:09.174Z,24.10
2023-02-09T01:11:36.175Z,31.50
2023-02-09T01:14:04.523Z,26.90
2023-02-09T01:16:31.943Z,27.70
2023-02-09T01:19:00.581Z,26.40
2023-02-09T01:21:29.519Z,25.60
2023-02-09T01:23:56.904Z,26.30
2023-02-09T01:26:24.012Z,25.70
2023-02-09T01:28:53.095Z,24.90
2023-02-09T01:31:21.703Z,26.70
2023-02-09T01:33:51.169Z,23.70
2023-02-09T01:36:18.900Z,24.50
2023-02-09T01:38:45.989Z,24.50
2023-02-09T01:41:13.049Z,23.40
2023-02-09T01:43:51.528Z,24.80
2023-02-09T01:46:20.763Z,24.50
2023-02-09T01:48:49.132Z,26.80
2023-02-09T01:51:19.601Z,28.60
2023-02-09T01:53:46.567Z,27.30
2023-02-09T01:56:18.150Z,26.40
2023-02-09T01:58:46.104Z,27.60
2023-02-09T02:01:13.318Z,28.00
2023-02-09T02:03:41.015Z,28.10
2023-02-09T02:06:12.692Z,30.40
2023-02-09T02:08:43.761Z,37.90
2023-02-09T02:11:11.332Z,37.20
2023-02-09T02:13:39.039Z,43.00
2023-02-09T02:16:33.384Z,34.40
2023-02-09T02:19:19.351Z,30.10
2023-02-09T02:22:01.814Z,29.50
2023-02-09T02:24:41.720Z,29.60
2023-02-09T02:27:10.436Z,27.10
2023-02-09T02:29:58.980Z,28.10
2023-02-09T02:32:47.239Z,26.30
2023-02-09T02:35:20.266Z,26.80
2023-02-09T02:38:14.287Z,27.10
2023-02-09T02:40:58.284Z,27.10
2023-02-09T02:43:46.652Z,26.30
2023-02-09T02:46:18.806Z,26.50
2023-02-09T02:48:56.996Z,27.00
2023-02-09T02:51:34.755Z,25.70
2023-02-09T02:54:04.803Z,28.20
2023-02-09T02:56:36.033Z,28.40
2023-02-09T02:59:04.968Z,27.70
2023-02-09T03:01:34.678Z,27.60
2023-02-09T03:04:01.751Z,28.90
2023-02-09T03:06:31.411Z,29.20
2023-02-09T03:08:58.639Z,30.40
2023-02-09T03:11:38.257Z,27.20
2023-02-09T03:14:27.465Z,28.60
2023-02-09T03:19:46.856Z,26.40
2023-02-09T03:22:28.136Z,27.90
2023-02-09T03:25:16.409Z,28.80
2023-02-09T03:27:55.340Z,30.30
2023-02-09T03:30:22.995Z,44.20
2023-02-09T03:32:50.452Z,54.50
2023-02-09T03:35:17.671Z,43.10
2023-02-09T03:37:44.685Z,37.10
2023-02-09T03:40:11.922Z,30.90
2023-02-09T03:42:39.091Z,27.50
2023-02-09T03:45:07.462Z,28.10
2023-02-09T03:47:34.455Z,24.30
2023-02-09T03:50:01.356Z,25.00
2023-02-09T03:52:30.375Z,24.10
2023-02-09T03:54:57.414Z,23.80
2023-02-09T03:57:24.666Z,23.60
2023-02-09T03:59:51.696Z,24.70
2023-02-09T04:02:18.965Z,24.00
2023-02-09T04:04:46.242Z,23.80
2023-02-09T04:07:13.589Z,22.70
2023-02-09T04:09:41.831Z,24.40
2023-02-09T04:12:08.808Z,25.80
2023-02-09T04:14:36.516Z,25.20
2023-02-09T04:17:03.443Z,25.30
2023-02-09T04:19:30.362Z,26.20
2023-02-09T04:22:00.537Z,26.40
2023-02-09T04:24:28.141Z,23.40
2023-02-09T04:26:55.317Z,24.50
2023-02-09T04:29:22.308Z,26.10
2023-02-09T04:31:49.307Z,24.70
2023-02-09T04:34:16.347Z,26.80
2023-02-09T04:36:43.739Z,25.40
2023-02-09T04:39:10.554Z,26.70
2023-02-09T04:41:37.501Z,25.80
2023-02-09T04:44:04.720Z,26.80
2023-02-09T04:46:32.237Z,26.90
2023-02-09T04:49:00.391Z,27.60
2023-02-09T04:51:27.370Z,26.20
2023-02-09T04:53:54.460Z,25.70
2023-02-09T04:56:21.511Z,25.70
2023-02-09T04:59:07.270Z,26.20
2023-02-09T05:01:34.291Z,24.30
2023-02-09T05:04:01.739Z,27.30
2023-02-09T05:06:30.602Z,25.10
2023-02-09T05:08:57.938Z,23.40
2023-02-09T05:11:25.670Z,27.00
2023-02-09T05:13:52.832Z,26.40
2023-02-09T05:16:21.401Z,25.50
2023-02-09T05:18:49.977Z,27.50
2023-02-09T05:21:16.856Z,27.80
2023-02-09T05:23:44.228Z,27.60
2023-02-09T05:26:12.139Z,29.00
2023-02-09T05:28:39.387Z,27.50
2023-02-09T05:31:06.343Z,29.00
2023-02-09T05:33:33.927Z,29.20
2023-02-09T05:36:00.787Z,29.30
2023-02-09T05:38:28.041Z,30.60
2023-02-09T05:40:55.499Z,31.10
2023-02-09T05:43:22.371Z,29.70
2023-02-09T05:45:49.283Z,31.00
2023-02-09T05:48:16.401Z,32.00
2023-02-09T05:50:43.867Z,33.90
2023-02-09T05:53:15.130Z,31.40
2023-02-09T05:58:10.670Z,30.00
2023-02-09T06:00:37.868Z,29.30
2023-02-09T06:03:04.895Z,32.40
2023-02-09T06:05:32.034Z,32.40
2023-02-09T06:07:59.177Z,34.30
2023-02-09T06:10:26.401Z,36.30
2023-02-09T06:12:53.804Z,37.10
2023-02-09T06:15:20.792Z,38.70
2023-02-09T06:17:48.465Z,39.30
2023-02-09T06:20:15.598Z,37.10
2023-02-09T06:22:42.631Z,34.50
2023-02-09T06:25:10.020Z,34.60
2023-02-09T06:27:36.966Z,32.80
2023-02-09T06:30:05.036Z,32.10
2023-02-09T06:32:33.156Z,32.70
2023-02-09T06:35:00.438Z,33.60
2023-02-09T06:37:27.394Z,35.10
2023-02-09T06:39:54.281Z,35.50
2023-02-09T06:42:22.043Z,36.00
2023-02-09T06:44:49.288Z,33.20
2023-02-09T06:47:16.132Z,34.00
2023-02-09T06:49:43.412Z,31.90
2023-02-09T06:52:10.548Z,30.20
2023-02-09T06:54:38.029Z,32.30
2023-02-09T06:57:05.512Z,29.30
2023-02-09T06:59:32.448Z,29.80
2023-02-09T07:01:59.437Z,31.30
2023-02-09T07:04:26.768Z,30.30
2023-02-09T07:06:53.847Z,30.80
2023-02-09T07:09:22.206Z,29.50
2023-02-09T07:11:54.751Z,29.20
2023-02-09T07:14:22.485Z,30.60
2023-02-09T07:16:49.798Z,30.30
2023-02-09T07:19:16.676Z,30.10
2023-02-09T07:21:43.564Z,31.40
2023-02-09T07:24:10.728Z,31.90
2023-02-09T07:26:38.388Z,32.20
2023-02-09T07:29:05.641Z,31.00
2023-02-09T07:31:32.668Z,33.80
2023-02-09T07:33:59.683Z,32.20
2023-02-09T07:36:26.884Z,35.50
2023-02-09T07:38:57.312Z,35.30
2023-02-09T07:41:28.035Z,35.30
2023-02-09T07:43:55.521Z,40.80
2023-02-09T07:46:23.277Z,42.00
2023-02-09T07:48:50.852Z,43.30
2023-02-09T07:51:19.443Z,43.00
2023-02-09T07:53:46.983Z,42.70
2023-02-09T07:56:14.107Z,39.20
2023-02-09T07:58:41.363Z,38.00
2023-02-09T08:01:10.752Z,41.40
2023-02-09T08:03:38.347Z,37.90
2023-02-09T08:06:19.448Z,44.30
2023-02-09T08:08:49.502Z,42.40
2023-02-09T08:11:31.829Z,41.40
2023-02-09T08:13:58.971Z,36.80
2023-02-09T08:16:27.302Z,34.10
2023-02-09T08:18:58.204Z,34.50
2023-02-09T08:21:25.613Z,33.10
2023-02-09T08:23:53.583Z,33.20
2023-02-09T08:26:20.978Z,33.40
2023-02-09T08:28:48.150Z,30.60
2023-02-09T08:31:17.252Z,29.30
2023-02-09T08:33:47.726Z,30.40
2023-02-09T08:36:15.198Z,31.20
2023-02-09T08:38:42.486Z,28.90
2023-02-09T08:41:12.055Z,29.10
2023-02-09T08:46:10.726Z,25.70
2023-02-09T08:48:43.372Z,29.60
2023-02-09T08:51:11.522Z,28.00
2023-02-09T08:53:38.648Z,27.90
2023-02-09T08:56:06.204Z,25.90
2023-02-09T08:58:34.296Z,26.90
2023-02-09T09:01:01.803Z,25.50
2023-02-09T09:03:30.816Z,23.30
2023-02-09T09:08:26.113Z,18.50
2023-02-09T09:10:53.449Z,19.90
2023-02-09T09:13:20.646Z,15.80
2023-02-09T09:15:48.595Z,12.70
2023-02-09T09:18:15.895Z,13.30
2023-02-09T09:20:43.159Z,11.60
2023-02-09T09:23:11.113Z,13.10
2023-02-09T09:25:39.035Z,11.60
2023-02-09T09:28:06.483Z,11.10
2023-02-09T09:30:34.224Z,11.40
2023-02-09T09:33:01.715Z,11.10
2023-02-09T09:35:29.252Z,11.50
2023-02-09T09:37:58.023Z,11.30
2023-02-09T09:40:29.614Z,11.30
2023-02-09T09:42:59.006Z,11.60
2023-02-09T09:45:27.175Z,10.60
2023-02-09T09:47:55.776Z,11.10
2023-02-09T09:50:26.272Z,10.30
2023-02-09T09:53:01.580Z,11.00
2023-02-09T09:55:29.983Z,11.20
2023-02-09T09:58:02.897Z,11.40
2023-02-09T10:00:39.256Z,11.90
2023-02-09T10:03:14.721Z,11.90
2023-02-09T10:05:41.901Z,11.30
2023-02-09T10:08:23.297Z,11.70
2023-02-09T10:11:03.769Z,11.60
2023-02-09T10:13:40.743Z,12.90
2023-02-09T10:16:20.375Z,11.80
2023-02-09T10:18:58.011Z,10.90
2023-02-09T10:21:29.905Z,13.30
2023-02-09T10:23:59.431Z,12.10
2023-02-09T10:26:27.571Z,11.70
2023-02-09T10:29:24.089Z,11.70
2023-02-09T10:31:57.290Z,12.50
2023-02-09T10:34:46.367Z,13.10
2023-02-09T10:37:34.477Z,13.50
2023-02-09T10:40:12.347Z,14.70
2023-02-09T10:42:42.830Z,15.00
2023-02-09T10:45:15.784Z,14.80
2023-02-09T10:47:42.582Z,13.90
2023-02-09T10:50:17.060Z,14.90
2023-02-09T10:53:36.634Z,13.70
2023-02-09T10:56:06.426Z,13.80
2023-02-09T10:58:36.612Z,15.00
2023-02-09T11:01:17.463Z,14.20
2023-02-09T11:04:02.095Z,14.80
2023-02-09T11:06:35.212Z,15.30
2023-02-09T11:09:16.663Z,14.80
2023-02-09T11:11:43.684Z,14.40
2023-02-09T11:14:15.782Z,15.20
2023-02-09T11:16:52.476Z,15.10
2023-02-09T11:19:21.865Z,14.40
2023-02-09T11:22:21.265Z,15.20
2023-02-09T11:24:54.118Z,14.00
2023-02-09T11:27:26.967Z,15.30
2023-02-09T11:30:18.751Z,14.20
2023-02-09T11:32:55.359Z,13.90
2023-02-09T11:35:25.213Z,14.60
2023-02-09T11:37:58.201Z,14.30
2023-02-09T11:40:25.193Z,14.70
2023-02-09T11:42:52.315Z,14.60
2023-02-09T11:45:24.500Z,15.10
2023-02-09T11:47:58.032Z,15.60
2023-02-09T11:50:27.988Z,17.00
2023-02-09T11:53:18.122Z,15.60
2023-02-09T11:56:05.509Z,15.90
2023-02-09T11:58:51.268Z,17.40
2023-02-09T12:01:33.509Z,16.60
2023-02-09T12:04:19.101Z,16.50
2023-02-09T12:06:50.489Z,15.30
2023-02-09T12:09:54.803Z,15.20
2023-02-09T12:12:23.798Z,13.60
2023-02-09T12:15:13.727Z,12.80
2023-02-09T12:18:06.636Z,12.20
2023-02-09T12:20:36.584Z,12.00
2023-02-09T12:23:25.517Z,14.00
2023-02-09T12:26:00.710Z,16.10
2023-02-09T12:28:31.898Z,13.30
2023-02-09T12:31:06.650Z,11.80
2023-02-09T12:33:36.976Z,12.50
2023-02-09T12:36:09.940Z,11.30
2023-02-09T12:38:51.577Z,10.80
2023-02-09T12:41:22.960Z,10.80
2023-02-09T12:43:50.330Z,11.60
2023-02-09T12:46:29.321Z,11.80
2023-02-09T12:49:13.150Z,11.10
2023-02-09T12:51:55.507Z,11.20
2023-02-09T12:54:44.399Z,10.90
2023-02-09T12:57:16.271Z,11.30
2023-02-09T12:59:53.131Z,11.90
2023-02-09T13:02:26.764Z,10.60
2023-02-09T13:05:02.119Z,10.30
2023-02-09T13:07:32.340Z,11.10
2023-02-09T13:10:05.898Z,9.30
2023-02-09T13:12:38.811Z,10.00
2023-02-09T13:15:12.510Z,9.80
2023-02-09T13:17:59.830Z,9.80
2023-02-09T13:20:33.437Z,9.50
2023-02-09T13:23:27.044Z,9.50
2023-02-09T13:26:01.766Z,10.40
2023-02-09T13:28:29.318Z,12.10
2023-02-09T13:30:56.472Z,9.70
2023-02-09T13:33:43.751Z,10.80
2023-02-09T13:36:46.762Z,10.80
2023-02-09T13:39:24.296Z,10.40
2023-02-09T13:41:53.291Z,10.80
2023-02-09T13:44:25.220Z,10.80
2023-02-09T13:46:57.113Z,11.50
2023-02-09T13:49:25.692Z,10.80
2023-02-09T13:52:12.057Z,12.20
2023-02-09T13:54:39.642Z,11.30
2023-02-09T13:57:33.466Z,13.40
2023-02-09T14:00:16.050Z,12.50
2023-02-09T14:02:58.863Z,14.10
2023-02-09T14:05:40.111Z,11.10
2023-02-09T14:08:07.749Z,11.70
2023-02-09T14:10:35.165Z,12.20
2023-02-09T14:13:36.650Z,12.80
2023-02-09T14:16:06.720Z,12.60
2023-02-09T14:18:55.876Z,12.80
2023-02-09T14:21:36.918Z,12.10
2023-02-09T14:24:13.298Z,13.50
2023-02-09T14:27:04.234Z,13.80
2023-02-09T14:29:32.436Z,12.80
2023-02-09T14:32:00.792Z,12.00
2023-02-09T14:34:35.762Z,12.60
2023-02-09T14:37:12.974Z,13.20
2023-02-09T14:39:52.011Z,12.90
2023-02-09T14:42:19.109Z,13.50
2023-02-09T14:44:56.989Z,12.50
2023-02-09T14:47:28.381Z,14.60
2023-02-09T14:49:57.164Z,13.60
2023-02-09T14:52:28.157Z,12.50
2023-02-09T14:55:05.904Z,12.80
2023-02-09T14:57:35.614Z,12.20
2023-02-09T15:00:23.645Z,12.50
2023-02-09T15:02:51.894Z,13.20
2023-02-09T15:05:19.847Z,12.70
2023-02-09T15:07:55.546Z,12.80
2023-02-09T15:10:27.721Z,12.30
2023-02-09T15:12:58.280Z,13.20
2023-02-09T15:15:25.615Z,13.00
2023-02-09T15:17:54.551Z,14.00
2023-02-09T15:20:24.746Z,13.10
2023-02-09T15:22:53.041Z,14.70
2023-02-09T15:25:20.958Z,14.50
2023-02-09T15:27:52.930Z,14.60
2023-02-09T15:30:31.757Z,14.00
2023-02-09T15:32:59.615Z,14.50
2023-02-09T15:35:27.460Z,14.80
2023-02-09T15:37:56.076Z,13.60
2023-02-09T15:40:45.016Z,14.10
2023-02-09T15:43:36.193Z,13.00
2023-02-09T15:46:23.572Z,12.70
2023-02-09T15:48:50.508Z,13.60
2023-02-09T15:51:17.508Z,14.50
2023-02-09T15:53:45.827Z,15.20
2023-02-09T15:56:12.982Z,14.50
2023-02-09T15:58:44.203Z,14.80
2023-02-09T16:01:13.523Z,15.00
2023-02-09T16:06:12.034Z,14.10
2023-02-09T16:08:38.926Z,14.60
2023-02-09T16:11:08.988Z,15.10
2023-02-09T16:13:50.619Z,16.50
2023-02-09T16:16:17.966Z,17.20
2023-02-09T16:18:46.094Z,14.90
2023-02-09T16:21:27.665Z,17.10
2023-02-09T16:23:57.612Z,15.00
2023-02-09T16:26:24.805Z,17.30
2023-02-09T16:28:51.909Z,17.30
2023-02-09T16:31:19.007Z,18.60
2023-02-09T16:33:45.967Z,19.00
2023-02-09T16:36:15.710Z,19.20
2023-02-09T16:38:42.672Z,19.90
2023-02-09T16:41:33.946Z,22.50
2023-02-09T16:44:01.714Z,20.20
2023-02-09T16:46:29.226Z,22.50
2023-02-09T16:49:00.665Z,21.50
2023-02-09T16:51:27.821Z,22.50
2023-02-09T16:53:56.136Z,22.60
2023-02-09T16:56:25.349Z,22.20
2023-02-09T16:58:52.269Z,22.90
2023-02-09T17:01:20.644Z,21.10
2023-02-09T17:03:49.427Z,19.70
2023-02-09T17:06:19.459Z,19.90
2023-02-09T17:08:46.810Z,16.80
2023-02-09T17:11:22.849Z,17.80
2023-02-09T17:13:50.549Z,18.20
2023-02-09T17:16:30.097Z,16.40
2023-02-09T17:19:00.016Z,16.40
2023-02-09T17:21:28.700Z,15.40
2023-02-09T17:23:57.081Z,15.40
2023-02-09T17:26:26.139Z,15.90
2023-02-09T17:28:53.580Z,14.90
2023-02-09T17:31:23.276Z,15.10
2023-02-09T17:33:55.155Z,15.40
2023-02-09T17:36:28.488Z,16.40
2023-02-09T17:38:57.503Z,15.50
2023-02-09T17:41:24.797Z,16.40
2023-02-09T17:43:51.743Z,17.40
2023-02-09T17:46:19.130Z,17.30
2023-02-09T17:48:46.855Z,18.00
2023-02-09T17:51:28.594Z,18.00
2023-02-09T17:53:55.653Z,18.90
2023-02-09T17:56:22.906Z,20.40
2023-02-09T17:58:50.130Z,19.30
2023-02-09T18:01:21.701Z,21.30
2023-02-09T18:03:48.857Z,21.90
2023-02-09T18:06:16.901Z,22.70
2023-02-09T18:08:44.190Z,22.60
2023-02-09T18:11:15.113Z,21.70
2023-02-09T18:13:42.343Z,23.00
2023-02-09T18:16:09.203Z,25.30
2023-02-09T18:18:38.004Z,25.00
2023-02-09T18:21:05.515Z,24.50
2023-02-09T18:23:32.812Z,24.90
2023-02-09T18:25:59.841Z,25.80
2023-02-09T18:28:27.075Z,22.70
2023-02-09T18:30:54.631Z,23.40
2023-02-09T18:33:21.925Z,25.90
2023-02-09T18:35:49.472Z,25.10
2023-02-09T18:38:17.119Z,23.40
2023-02-09T18:40:44.995Z,24.20
2023-02-09T18:43:14.028Z,22.80
2023-02-09T18:48:07.664Z,22.10
2023-02-09T18:50:34.993Z,22.00
2023-02-09T18:53:02.832Z,20.70
2023-02-09T18:55:31.917Z,21.10
2023-02-09T19:00:26.882Z,19.20
2023-02-09T19:02:57.607Z,18.10
2023-02-09T19:05:26.280Z,19.90
2023-02-09T19:07:55.358Z,23.00
2023-02-09T19:10:22.990Z,26.70
2023-02-09T19:12:50.754Z,29.80
2023-02-09T19:15:19.232Z,31.20
2023-02-09T19:17:46.415Z,32.60
2023-02-09T19:20:19.094Z,33.00
2023-02-09T19:22:47.656Z,35.50
2023-02-09T19:25:14.793Z,35.50
2023-02-09T19:27:42.005Z,34.90
2023-02-09T19:30:13.172Z,35.60
2023-02-09T19:32:41.249Z,37.80
2023-02-09T19:35:09.019Z,41.50
2023-02-09T19:37:36.867Z,42.90
2023-02-09T19:40:16.843Z,44.50
2023-02-09T19:42:44.272Z,43.20
2023-02-09T19:45:11.863Z,41.50
2023-02-09T19:47:39.307Z,42.50
2023-02-09T19:50:06.358Z,40.30
2023-02-09T19:52:37.292Z,38.40
2023-02-09T19:55:04.655Z,36.90
2023-02-09T19:57:31.711Z,34.60
2023-02-09T19:59:59.472Z,34.90
2023-02-09T20:02:26.771Z,33.10
2023-02-09T20:04:53.957Z,34.00
2023-02-09T20:07:21.945Z,33.30
2023-02-09T20:09:50.217Z,31.30
2023-02-09T20:12:18.648Z,29.90
2023-02-09T20:14:46.060Z,30.10
2023-02-09T20:17:14.855Z,32.10
2023-02-09T20:19:41.962Z,29.00
2023-02-09T20:22:11.125Z,31.20
2023-02-09T20:24:38.714Z,30.70
2023-02-09T20:27:07.626Z,29.90
2023-02-09T20:29:34.832Z,30.00
2023-02-09T20:32:02.496Z,29.60
2023-02-09T20:34:29.578Z,28.80
2023-02-09T20:42:03.452Z,29.20
2023-02-09T20:44:50.665Z,28.00
2023-02-09T20:47:18.325Z,31.10
2023-02-09T20:49:45.679Z,31.40
2023-02-09T20:52:12.587Z,31.60
2023-02-09T20:54:40.018Z,28.70
2023-02-09T20:57:07.343Z,28.30
2023-02-09T20:59:34.364Z,29.80
2023-02-09T21:02:01.412Z,28.50
2023-02-09T21:04:29.569Z,26.90
2023-02-09T21:06:57.122Z,23.70
2023-02-09T21:09:25.986Z,23.90
2023-02-09T21:11:53.723Z,21.80
2023-02-09T21:14:27.859Z,23.70
2023-02-09T21:17:08.378Z,22.10
2023-02-09T21:19:36.517Z,20.70
2023-02-09T21:22:03.418Z,19.80
2023-02-09T21:24:32.276Z,18.50
2023-02-09T21:27:02.456Z,19.40
2023-02-09T21:29:29.889Z,19.50
2023-02-09T21:32:02.416Z,18.50
2023-02-09T21:34:30.013Z,20.90
2023-02-09T21:36:57.042Z,19.90
2023-02-09T21:39:24.104Z,19.70
2023-02-09T21:42:10.147Z,18.20
2023-02-09T21:47:07.429Z,18.00
2023-02-09T21:49:34.578Z,18.10
2023-02-09T21:52:01.478Z,20.10
2023-02-09T21:54:33.218Z,20.80
2023-02-09T21:57:00.995Z,18.70
2023-02-09T21:59:28.819Z,19.90
2023-02-09T22:01:55.919Z,19.20
2023-02-09T22:04:22.912Z,18.60
2023-02-09T22:06:50.226Z,20.90
2023-02-09T22:09:19.584Z,21.90
2023-02-09T22:11:46.640Z,21.20
2023-02-09T22:14:13.971Z,20.60
2023-02-09T22:16:41.856Z,21.10
2023-02-09T22:19:09.181Z,20.60
2023-02-09T22:21:36.098Z,21.50
2023-02-09T22:24:03.185Z,21.10
2023-02-09T22:26:30.155Z,21.90
2023-02-09T22:28:57.243Z,19.50
2023-02-09T22:31:24.632Z,19.90
2023-02-09T22:33:53.352Z,21.50
2023-02-09T22:36:20.333Z,19.80
2023-02-09T22:38:47.334Z,21.50
2023-02-09T22:41:22.285Z,19.60
2023-02-09T22:44:00.212Z,19.90
2023-02-09T22:46:32.634Z,17.90
2023-02-09T22:49:01.917Z,18.50
2023-02-09T22:51:29.830Z,20.70
2023-02-09T22:53:57.833Z,20.30
2023-02-09T22:56:25.824Z,19.30
2023-02-09T22:58:54.317Z,18.20
2023-02-09T23:01:21.806Z,19.00
2023-02-09T23:03:50.276Z,19.40
2023-02-09T23:06:23.518Z,20.70
2023-02-09T23:08:52.888Z,20.60
2023-02-09T23:14:08.455Z,16.20
2023-02-09T23:16:36.770Z,17.00
2023-02-09T23:19:07.549Z,17.40
2023-02-09T23:21:39.417Z,18.80
2023-02-09T23:24:11.503Z,20.50
2023-02-09T23:26:50.849Z,17.60
2023-02-09T23:29:22.433Z,19.20
2023-02-09T23:31:50.572Z,19.20
2023-02-09T23:34:21.872Z,19.70
2023-02-09T23:36:50.913Z,20.10
2023-02-09T23:39:26.455Z,20.90
2023-02-09T23:42:01.136Z,20.40
2023-02-09T23:44:36.121Z,19.30
2023-02-09T23:50:09.110Z,20.30
2023-02-09T23:52:36.683Z,19.70
2023-02-09T23:55:04.028Z,21.40
2023-02-09T23:57:32.066Z,21.30
2023-02-09T23:59:59.160Z,21.80
